Bookmark and Share
Track history (hours):
 

Drifting buoy 46562

Last reported at 2014-Apr-23 15:00 UTC. Time now 2014-Apr-23 19:01 UTC.
Position N 51°50' W 133°33'.

Water temperature 7.9 ° C

NotesDate/timePositionNaut miles runAvg speedWind from/ knotsBaromVisibWave heightAir tempDewpointWater temp
2014-Apr-23 15:00N 51°50' W 133°33'1 0.5 7.9
2014-Apr-23 14:00N 51°49' W 133°33'1 1.1 7.9
2014-Apr-23 13:00N 51°49' W 133°31'0 0.4 7.9
2014-Apr-23 12:00N 51°50' W 133°31'1 0.9 7.9
2014-Apr-23 11:00N 51°50' W 133°31'0 0.0 8.0
2014-Apr-23 10:00N 51°50' W 133°31'2 0.6 7.9
2014-Apr-23 07:00N 51°52' W 133°31'0 0.5 8.0
2014-Apr-23 06:00N 51°52' W 133°32'0 0.1 8.0
2014-Apr-23 05:00N 51°52' W 133°32'1 1.2 8.0
2014-Apr-23 04:00N 51°52' W 133°30'2 1.8 8.0
2014-Apr-23 03:00N 51°51' W 133°33'1 0.4 8.1
2014-Apr-23 01:00N 51°51' W 133°32'0 0.5 8.1
2014-Apr-23 00:00N 51°50' W 133°31'0 0.2 8.1
2014-Apr-22 23:00N 51°50' W 133°31'1 1.1 8.0
2014-Apr-22 22:00N 51°51' W 133°30'0 0.1 8.0
2014-Apr-22 20:00N 51°51' W 133°29'1 0.9 7.9
2014-Apr-22 19:00N 51°52' W 133°29'0 0.0 7.8
2014-Apr-22 18:00N 51°52' W 133°29'0 0.2 7.8
2014-Apr-22 16:00N 51°53' W 133°29'0 0.0 7.8
2014-Apr-22 15:00N 51°53' W 133°29'0 0.2 7.8
2014-Apr-22 14:00N 51°52' W 133°29'0 0.3 7.8
2014-Apr-22 13:00N 51°52' W 133°30'0 0.1 7.8
2014-Apr-22 12:00N 51°52' W 133°30'2 0.9 7.8
2014-Apr-22 10:00N 51°51' W 133°30'1 1.4 7.8
2014-Apr-22 09:00N 51°52' W 133°30'2 0.8 7.8
2014-Apr-22 07:00N 51°50' W 133°29'1 0.4 7.9
2014-Apr-22 05:00N 51°51' W 133°28'1 0.7 7.9
2014-Apr-22 04:00N 51°51' W 133°27'1 0.6 7.9
2014-Apr-22 03:00N 51°51' W 133°26'0 0.0 7.9
2014-Apr-22 02:00N 51°51' W 133°26'0 0.5 7.9
2014-Apr-22 01:00N 51°52' W 133°27'1 0.7 7.9
2014-Apr-22 00:00N 51°52' W 133°27'1 1.1 7.9
2014-Apr-21 23:00N 51°52' W 133°29'0 0.1 7.9
2014-Apr-21 22:00N 51°52' W 133°29'1 0.9 7.9
2014-Apr-21 21:00N 51°52' W 133°30'1 1.1 7.9
2014-Apr-21 20:00N 51°51' W 133°31'1 0.6 7.8
2014-Apr-21 19:00N 51°51' W 133°31'1 0.5 7.8
2014-Apr-21 17:00N 51°50' W 133°30'0 0.0 7.7
2014-Apr-21 16:00N 51°50' W 133°30'2 2.1 7.7
2014-Apr-21 15:00N 51°49' W 133°27'1 1.0 7.7
2014-Apr-21 14:00N 51°50' W 133°27'1 0.6 7.7
2014-Apr-21 13:00N 51°51' W 133°28'1 0.5 7.7
2014-Apr-21 12:00N 51°51' W 133°27'3 1.7 7.7
2014-Apr-21 10:00N 51°52' W 133°32'0 0.0 7.7
2014-Apr-21 07:00N 51°52' W 133°32'1 1.0 7.7
2014-Apr-21 06:00N 51°52' W 133°33'1 0.8 7.7
2014-Apr-21 05:00N 51°51' W 133°33'1 1.2 7.7
2014-Apr-21 04:00N 51°50' W 133°34'1 0.5 7.7
2014-Apr-21 02:00N 51°50' W 133°32'0 0.2 7.7
2014-Apr-21 01:00N 51°50' W 133°32'0 0.0 7.8
2014-Apr-21 00:00N 51°50' W 133°32'1 0.6 7.8
2014-Apr-20 23:00N 51°50' W 133°32'1 0.9 7.8
2014-Apr-20 22:00N 51°51' W 133°31'0 0.0 7.7
2014-Apr-20 21:00N 51°51' W 133°31'1 1.1 7.8
2014-Apr-20 20:00N 51°51' W 133°33'0 0.5 7.7
2014-Apr-20 19:00N 51°52' W 133°33'1 0.6 7.7
2014-Apr-20 18:00N 51°51' W 133°34'3 0.8 7.7
2014-Apr-20 15:00N 51°50' W 133°38'2 1.6 7.8
2014-Apr-20 14:00N 51°49' W 133°38'1 1.4 7.8
2014-Apr-20 13:00N 51°47' W 133°36'0 0.1 7.8
2014-Apr-20 12:00N 51°48' W 133°37'1 0.4 7.8
2014-Apr-20 10:00N 51°47' W 133°36'1 0.2 7.8
2014-Apr-20 07:00N 51°46' W 133°35'1 0.3 7.9
2014-Apr-20 04:00N 51°47' W 133°37'1 0.9 7.9
2014-Apr-20 03:00N 51°46' W 133°35'2 2.1 7.9
2014-Apr-20 02:00N 51°47' W 133°39'1 0.9 7.9
2014-Apr-20 01:00N 51°46' W 133°40'2 0.8 7.9
2014-Apr-19 22:00N 51°45' W 133°43'0 0.4 7.9
2014-Apr-19 21:00N 51°45' W 133°43'1 0.8 7.9
2014-Apr-19 20:00N 51°44' W 133°43'0 0.4 7.9
2014-Apr-19 19:00N 51°44' W 133°43'1 1.2 7.9
2014-Apr-19 18:00N 51°43' W 133°41'0 0.0 7.9
2014-Apr-19 14:00N 51°43' W 133°41'0 0.1 7.9
2014-Apr-19 12:00N 51°44' W 133°41'4 4.0 8.0
2014-Apr-19 11:00N 51°40' W 133°42'0 0.1 8.0
2014-Apr-19 09:00N 51°39' W 133°42'1 0.7 8.0
2014-Apr-19 07:00N 51°38' W 133°44'2 1.5 8.1
2014-Apr-19 06:00N 51°37' W 133°43'1 0.6 8.0
2014-Apr-19 04:00N 51°36' W 133°42'3 3.3 8.0
2014-Apr-19 03:00N 51°34' W 133°38'0 0.1 8.0
2014-Apr-19 01:00N 51°34' W 133°38'1 1.4 8.0
2014-Apr-19 00:00N 51°33' W 133°38'1 1.2 8.0
2014-Apr-18 23:00N 51°32' W 133°36'1 0.8 8.1
2014-Apr-18 22:00N 51°32' W 133°37'0 0.2 8.1
2014-Apr-18 21:00N 51°32' W 133°37'1 0.9 8.1
2014-Apr-18 20:00N 51°31' W 133°36'1 0.6 8.1
2014-Apr-18 18:00N 51°30' W 133°36'1 0.6 8.1
2014-Apr-18 16:00N 51°29' W 133°34'0 0.4 8.1
2014-Apr-18 15:00N 51°29' W 133°34'0 0.4 8.1
2014-Apr-18 14:00N 51°29' W 133°33'1 0.6 8.1
2014-Apr-18 13:00N 51°28' W 133°33'0 0.2 8.1
2014-Apr-18 12:00N 51°28' W 133°32'1 0.9 8.1
2014-Apr-18 11:00N 51°28' W 133°32'1 0.3 8.1
2014-Apr-18 09:00N 51°28' W 133°31'0 0.0 8.1
2014-Apr-18 07:00N 51°28' W 133°31'0 0.3 8.1
2014-Apr-18 06:00N 51°28' W 133°31'0 0.3 8.1
2014-Apr-18 05:00N 51°27' W 133°31'0 0.1 8.1
2014-Apr-18 04:00N 51°27' W 133°31'1 0.8 8.2
2014-Apr-18 03:00N 51°27' W 133°30'0 0.3 8.2
2014-Apr-18 02:00N 51°27' W 133°30'1 0.7 8.2
2014-Apr-18 00:00N 51°27' W 133°27'0 0.4 8.2
2014-Apr-17 23:00N 51°27' W 133°28'0 0.0 8.2
2014-Apr-17 22:00N 51°27' W 133°28'0 0.0 8.2
2014-Apr-17 21:00N 51°27' W 133°28'1 0.6 8.2
2014-Apr-17 20:00N 51°27' W 133°29'0 0.3 8.2
2014-Apr-17 19:00N 51°27' W 133°28'0 0.5 8.2
2014-Apr-17 18:00N 51°27' W 133°29'0 0.3 8.2
2014-Apr-17 17:00N 51°27' W 133°29'1 0.2 8.2
2014-Apr-17 14:00N 51°27' W 133°29'0 0.5 8.1
2014-Apr-17 13:00N 51°27' W 133°30'0 0.4 8.1
2014-Apr-17 12:00N 51°26' W 133°29'1 0.7 8.1
2014-Apr-17 11:00N 51°27' W 133°30'1 0.3 8.1
2014-Apr-17 09:00N 51°27' W 133°29'0 0.1 8.1
2014-Apr-17 06:00N 51°26' W 133°29'0 0.3 8.1
2014-Apr-17 05:00N 51°27' W 133°29'0 0.4 8.1
2014-Apr-17 04:00N 51°27' W 133°28'0 0.0 8.1
2014-Apr-17 03:00N 51°27' W 133°28'0 0.1 8.2
2014-Apr-17 01:00N 51°27' W 133°28'0 0.4 8.1
2014-Apr-17 00:00N 51°26' W 133°29'1 0.6 8.1
2014-Apr-16 23:00N 51°26' W 133°29'0 0.3 8.1
2014-Apr-16 22:00N 51°25' W 133°29'0 0.3 8.1
2014-Apr-16 21:00N 51°26' W 133°29'0 0.3 8.1
2014-Apr-16 20:00N 51°25' W 133°28'1 0.5 8.1
2014-Apr-16 19:00N 51°25' W 133°29'0 0.0 8.1
2014-Apr-16 18:00N 51°25' W 133°29'0 0.3 8.1
2014-Apr-16 17:00N 51°26' W 133°30'0 0.0 8.1
2014-Apr-16 16:00N 51°26' W 133°30'0 0.0 8.1
2014-Apr-16 15:00N 51°26' W 133°30'1 0.8 8.1
2014-Apr-16 14:00N 51°26' W 133°30'1 0.6 8.1
2014-Apr-16 13:00N 51°26' W 133°30'1 1.0 8.2
2014-Apr-16 12:00N 51°26' W 133°31'0 0.3 8.2
2014-Apr-16 11:00N 51°27' W 133°32'0 0.0 8.2
2014-Apr-16 10:00N 51°27' W 133°32'0 0.0 8.2
2014-Apr-16 09:00N 51°27' W 133°32'2 0.6 8.2
2014-Apr-16 06:00N 51°25' W 133°30'1 0.4 8.2
2014-Apr-16 04:00N 51°25' W 133°28'0 0.0 8.2
2014-Apr-16 03:00N 51°25' W 133°28'0 0.0 8.3
2014-Apr-16 02:00N 51°25' W 133°28'0 0.1 8.3
2014-Apr-16 00:00N 51°25' W 133°29'0 0.0 8.3
2014-Apr-15 23:00N 51°25' W 133°29'1 0.3 8.3
2014-Apr-15 21:00N 51°25' W 133°29'0 0.2 8.2
2014-Apr-15 20:00N 51°24' W 133°29'0 0.4 8.2
2014-Apr-15 19:00N 51°24' W 133°29'1 0.3 8.2
2014-Apr-15 17:00N 51°24' W 133°28'0 0.0 8.2
2014-Apr-15 16:00N 51°24' W 133°28'0 0.3 8.2
2014-Apr-15 15:00N 51°24' W 133°28'0 0.1 8.2
2014-Apr-15 14:00N 51°24' W 133°28'1 0.8 8.2
2014-Apr-15 13:00N 51°24' W 133°27'0 0.0 8.2
2014-Apr-15 12:00N 51°24' W 133°27'1 1.2 8.2
2014-Apr-15 11:00N 51°24' W 133°29'0 0.5 8.2
2014-Apr-15 10:00N 51°25' W 133°28'1 0.2 8.2
2014-Apr-15 06:00N 51°24' W 133°29'0 0.2 8.2
2014-Apr-15 05:00N 51°24' W 133°29'1 0.6 8.3
2014-Apr-15 04:00N 51°24' W 133°28'1 1.1 8.3
2014-Apr-15 03:00N 51°24' W 133°27'0 0.0 8.3
2014-Apr-15 02:00N 51°24' W 133°27'1 0.5 8.3
2014-Apr-15 00:00N 51°24' W 133°28'0 0.2 8.3
2014-Apr-14 23:00N 51°24' W 133°28'0 0.2 8.3
2014-Apr-14 21:00N 51°24' W 133°28'0 0.2 8.3
2014-Apr-14 20:00N 51°24' W 133°29'0 0.1 8.3
2014-Apr-14 19:00N 51°25' W 133°29'0 0.1 8.3
2014-Apr-14 18:00N 51°24' W 133°29'0 0.1 8.3
2014-Apr-14 17:00N 51°25' W 133°29'1 0.7 8.3
2014-Apr-14 16:00N 51°24' W 133°30'1 0.8 8.2
2014-Apr-14 15:00N 51°24' W 133°28'1 0.5 8.3
2014-Apr-14 14:00N 51°24' W 133°28'2 0.5 8.3
2014-Apr-14 11:00N 51°23' W 133°29'2 1.7 8.3
2014-Apr-14 10:00N 51°21' W 133°28'0 0.0 8.3
2014-Apr-14 07:00N 51°21' W 133°28'0 0.4 8.4
2014-Apr-14 06:00N 51°21' W 133°27'1 0.9 8.4
2014-Apr-14 05:00N 51°20' W 133°27'0 0.3 8.4
2014-Apr-14 04:00N 51°20' W 133°27'1 0.9 8.4
2014-Apr-14 03:00N 51°20' W 133°25'0 0.5 8.5
2014-Apr-14 02:00N 51°20' W 133°26'0 0.0 8.5
2014-Apr-14 01:00N 51°20' W 133°26'0 0.2 8.5
2014-Apr-14 00:00N 51°20' W 133°26'0 0.1 8.5
2014-Apr-13 23:00N 51°20' W 133°26'1 0.7 8.5
2014-Apr-13 21:00N 51°19' W 133°27'0 0.0 8.5
2014-Apr-13 20:00N 51°19' W 133°27'3 0.6 8.4
2014-Apr-13 15:00N 51°16' W 133°23'   8.2

Dump ship's entire track history

sailing weather and tide predictions

Buoy 46562